KCRW Airport Diagram

We have created a template for each of the higher traffic airports in the vZID airspace. They include KCMH, KCRW, KCVG, KDAY, KIND, KLEX and KSDF. You wil find usefull information including the airport diagram, weather, and specific airport procedures.

KCRW Weather

[Source: ADDS]
METAR
KCRW 251854Z 24007KT 10SM SCT044 31/19 A3007 RMK AO2 SLP173 T03060194 $ =
KCRW 251748Z 2518/2618 26009KT P6SM SCT035 FM252000 24007KT P6SM BKN050 FM260000 24005KT P6SM SCT050 FM260900 VRB03KT 5SM BR SCT050 FM261100 VRB03KT P6SM BKN050 FM261500 25006KT P6SM BKN050
TAF
KCRW 251748Z 2518/2618 26009KT P6SM SCT035 FM252000 24007KT P6SM BKN050 FM260000 24005KT P6SM SCT050 FM260900 VRB03KT 5SM BR SCT050 FM261100 VRB03KT P6SM BKN050 FM261500 25006KT P6SM BKN050 =

KCRW Operations

Calm wind runway up to 10kts: Rw 23

 

JSN Epic template designed by JoomlaShine.com